Time;durP1;ratioP1;P1;durP2;ratioP2;P2;SDS_P1;SDS_P2;PMS_P1;PMS_P2;Temp;Humidity;BMP_temperature;BMP_pressure;BME280_temperature;BME280_humidity;BME280_pressure;Samples;Min_cycle;Max_cycle;Signal;HPM_P1;HPM_P2
2022/03/12 00:00:07;;;;;;;;;;;23.80;67.80;;;;;;5149134;22;19964;-67
2022/03/12 00:02:33;;;;;;;;;;;23.80;67.80;;;;;;5147499;22;20154;-68
2022/03/12 00:04:55;;;;;;;;;;;23.80;67.80;;;;;;5157565;22;19934;-68
2022/03/12 00:07:17;;;;;;;;;;;23.80;67.70;;;;;;5155453;22;20004;-65
2022/03/12 00:09:39;;;;;;;;;;;23.80;67.70;;;;;;5150324;22;19946;-65
2022/03/12 00:12:01;;;;;;;;;;;23.80;67.70;;;;;;5154406;22;20009;-66
2022/03/12 00:14:27;;;;;;;;;;;23.80;67.70;;;;;;5161898;22;20018;-66
2022/03/12 00:16:50;;;;;;;;;;;23.80;67.80;;;;;;5153762;22;19911;-67
2022/03/12 00:19:11;;;;;;;;;;;23.80;67.80;;;;;;5154473;22;19938;-67
2022/03/12 00:21:35;;;;;;;;;;;23.80;67.80;;;;;;5158207;22;19907;-67
2022/03/12 00:23:58;;;;;;;;;;;23.80;67.70;;;;;;5151838;22;19907;-67
2022/03/12 00:26:22;;;;;;;;;;;23.80;67.70;;;;;;5153894;22;19998;-66
2022/03/12 00:28:45;;;;;;;;;;;23.80;67.60;;;;;;5160868;22;19913;-67
2022/03/12 00:31:07;;;;;;;;;;;23.80;67.60;;;;;;5149329;22;20211;-67
2022/03/12 00:33:29;;;;;;;;;;;23.80;67.60;;;;;;5149107;22;20367;-66
2022/03/12 00:35:54;;;;;;;;;;;23.80;67.40;;;;;;5146873;22;20681;-67
2022/03/12 00:38:17;;;;;;;;;;;23.80;67.50;;;;;;5146174;22;19957;-66
2022/03/12 00:40:38;;;;;;;;;;;23.80;67.50;;;;;;5116495;22;19934;-66
2022/03/12 00:43:01;;;;;;;;;;;23.80;67.30;;;;;;5154065;22;19918;-68
2022/03/12 00:45:23;;;;;;;;;;;23.80;67.30;;;;;;5147905;22;20211;-68
2022/03/12 00:47:45;;;;;;;;;;;23.80;67.30;;;;;;5147821;22;19914;-71
2022/03/12 00:50:07;;;;;;;;;;;23.90;67.30;;;;;;5153332;22;20819;-68
2022/03/12 00:52:29;;;;;;;;;;;23.90;67.20;;;;;;5152617;22;19911;-69
2022/03/12 00:54:51;;;;;;;;;;;23.90;67.10;;;;;;5147719;22;19945;-70
2022/03/12 00:57:13;;;;;;;;;;;24.00;67.10;;;;;;5139231;22;20005;-70
2022/03/12 00:59:35;;;;;;;;;;;24.00;67.00;;;;;;5156258;22;20516;-67
2022/03/12 01:01:57;;;;;;;;;;;24.00;66.90;;;;;;5143037;22;19934;-68
2022/03/12 01:04:19;;;;;;;;;;;24.00;66.80;;;;;;5138119;22;19911;-69
2022/03/12 01:06:42;;;;;;;;;;;24.00;66.80;;;;;;5153032;22;20335;-69
2022/03/12 01:09:04;;;;;;;;;;;24.00;66.70;;;;;;5140486;22;19907;-68
2022/03/12 01:11:26;;;;;;;;;;;24.00;66.80;;;;;;5136758;22;19987;-67
2022/03/12 01:13:48;;;;;;;;;;;24.00;66.80;;;;;;5149216;22;19903;-66
2022/03/12 01:16:10;;;;;;;;;;;24.10;66.80;;;;;;5152499;22;19907;-67
2022/03/12 01:18:32;;;;;;;;;;;24.10;66.70;;;;;;5147591;22;19915;-67
2022/03/12 01:20:54;;;;;;;;;;;24.10;66.70;;;;;;5143759;22;19960;-66
2022/03/12 01:23:17;;;;;;;;;;;24.10;66.70;;;;;;5152867;22;20383;-67
2022/03/12 01:25:40;;;;;;;;;;;24.10;66.60;;;;;;5144897;22;20417;-67
2022/03/12 01:28:02;;;;;;;;;;;24.20;66.60;;;;;;5146834;22;20595;-67
2022/03/12 01:30:29;;;;;;;;;;;24.20;66.60;;;;;;5153585;22;19973;-70
2022/03/12 01:32:50;;;;;;;;;;;24.20;66.50;;;;;;5146091;22;19914;-69
2022/03/12 01:35:12;;;;;;;;;;;24.20;66.50;;;;;;5149110;22;19991;-69
2022/03/12 01:37:34;;;;;;;;;;;24.20;66.40;;;;;;5155943;22;19914;-67
2022/03/12 01:39:56;;;;;;;;;;;24.20;66.30;;;;;;5154527;22;19915;-68
2022/03/12 01:42:20;;;;;;;;;;;24.30;66.40;;;;;;5151543;22;20017;-67
2022/03/12 01:44:44;;;;;;;;;;;24.30;66.30;;;;;;5142309;22;19903;-68
2022/03/12 01:47:13;;;;;;;;;;;24.30;66.20;;;;;;5154292;22;19942;-67
2022/03/12 01:49:35;;;;;;;;;;;24.30;66.20;;;;;;5153546;22;20394;-66
2022/03/12 01:51:57;;;;;;;;;;;24.30;66.20;;;;;;5152992;22;20009;-67
2022/03/12 01:54:20;;;;;;;;;;;24.30;66.10;;;;;;5119415;22;19916;-68
2022/03/12 01:56:42;;;;;;;;;;;24.40;66.00;;;;;;5148691;22;19913;-68
2022/03/12 01:59:04;;;;;;;;;;;24.40;66.00;;;;;;5151582;22;20144;-67
2022/03/12 02:01:28;;;;;;;;;;;24.40;65.90;;;;;;5146907;22;19907;-69
2022/03/12 02:03:50;;;;;;;;;;;24.40;65.90;;;;;;5151159;22;19907;-69
2022/03/12 02:06:15;;;;;;;;;;;24.40;65.90;;;;;;5149821;22;20399;-69
2022/03/12 02:08:37;;;;;;;;;;;24.50;65.80;;;;;;5155531;22;20394;-70
2022/03/12 02:10:59;;;;;;;;;;;24.50;65.80;;;;;;5154192;22;19917;-67
2022/03/12 02:13:21;;;;;;;;;;;24.50;65.70;;;;;;5153950;22;19903;-70
2022/03/12 02:15:43;;;;;;;;;;;24.50;65.70;;;;;;5164311;22;19982;-68
2022/03/12 02:18:05;;;;;;;;;;;24.50;65.70;;;;;;5156755;22;19919;-72
2022/03/12 02:20:28;;;;;;;;;;;24.50;65.70;;;;;;5154732;22;20006;-67
2022/03/12 02:22:53;;;;;;;;;;;24.50;65.70;;;;;;5159457;22;20014;-66
2022/03/12 02:25:15;;;;;;;;;;;24.50;65.80;;;;;;5154217;22;19941;-68
2022/03/12 02:27:38;;;;;;;;;;;24.60;65.70;;;;;;5142989;22;19911;-68
2022/03/12 02:30:02;;;;;;;;;;;24.60;65.70;;;;;;5154717;22;20393;-69
2022/03/12 02:32:23;;;;;;;;;;;24.60;65.80;;;;;;5154736;22;19907;-70
2022/03/12 02:34:46;;;;;;;;;;;24.60;65.70;;;;;;5155939;22;19907;-69
2022/03/12 02:37:09;;;;;;;;;;;24.60;65.60;;;;;;5148409;22;20004;-70
2022/03/12 02:39:31;;;;;;;;;;;24.70;65.60;;;;;;5158156;22;20090;-71
2022/03/12 02:41:56;;;;;;;;;;;24.70;65.50;;;;;;5153679;22;19914;-68
2022/03/12 02:44:21;;;;;;;;;;;24.70;65.40;;;;;;5161650;22;19907;-69
2022/03/12 02:47:04;;;;;;;;;;;24.80;65.40;;;;;;5156073;22;19907;-68
2022/03/12 02:49:27;;;;;;;;;;;24.80;65.40;;;;;;5161496;22;20143;-67
2022/03/12 02:51:49;;;;;;;;;;;24.80;65.40;;;;;;5160016;22;19911;-68
2022/03/12 02:54:11;;;;;;;;;;;24.80;65.30;;;;;;5158970;22;19903;-68
2022/03/12 02:56:35;;;;;;;;;;;24.80;65.30;;;;;;5169112;22;19933;-69
2022/03/12 02:58:57;;;;;;;;;;;24.80;65.30;;;;;;5164976;22;19915;-67
2022/03/12 03:01:19;;;;;;;;;;;24.80;65.30;;;;;;5165876;22;19915;-67
2022/03/12 03:03:42;;;;;;;;;;;24.80;65.10;;;;;;5168978;22;19961;-68
2022/03/12 03:06:04;;;;;;;;;;;24.90;65.10;;;;;;5161606;22;19911;-70
2022/03/12 03:08:26;;;;;;;;;;;24.90;65.00;;;;;;5153300;22;19907;-68
2022/03/12 03:10:50;;;;;;;;;;;24.90;64.90;;;;;;5159676;22;19906;-68
2022/03/12 03:13:16;;;;;;;;;;;25.00;64.80;;;;;;5168591;22;19982;-68
2022/03/12 03:15:39;;;;;;;;;;;25.00;64.80;;;;;;5162425;22;19910;-67
2022/03/12 03:18:05;;;;;;;;;;;25.10;64.70;;;;;;5171147;22;19911;-69
2022/03/12 03:20:28;;;;;;;;;;;25.10;64.70;;;;;;5171040;22;20168;-67
2022/03/12 03:22:50;;;;;;;;;;;25.10;64.70;;;;;;5150601;22;19907;-69
2022/03/12 03:25:18;;;;;;;;;;;25.10;64.60;;;;;;5160410;22;19899;-68
2022/03/12 03:27:40;;;;;;;;;;;25.10;64.50;;;;;;5165549;22;19985;-69
2022/03/12 03:30:02;;;;;;;;;;;25.20;64.60;;;;;;5139675;22;20737;-66
2022/03/12 03:32:24;;;;;;;;;;;25.20;64.60;;;;;;5140074;22;19976;-67
2022/03/12 03:34:49;;;;;;;;;;;25.20;64.40;;;;;;5142801;22;20714;-69
2022/03/12 03:37:11;;;;;;;;;;;25.20;64.50;;;;;;5141861;22;19907;-68
